Terminal Aerodrome Forecast
Issued by NWS

Home | Current Version | Previous Version | Text Only | Print | Product List | Glossary On
Versions: 1 2 3 4 5 6 7 8 9 10 11 12 13 14 15 16 17 18 19 20 21 22 23 24 25 26 27 28 29
330
FTUS44 KEWX 290537
TAFSSF
TAF
KSSF 290537Z 2906/3006 12013G23KT P6SM BKN019 OVC025
     FM290630 27024G34KT 4SM TSRA BR OVC012CB
     FM290830 VRB04KT P6SM BKN040
     FM291300 29007G16KT P6SM FEW250=

USA.gov is the U.S. government's official web portal to all federal, state and local government web resources and services.